createdAt,value
2022-08-26T00:01:18.003Z,1.00
2022-08-26T00:03:54.433Z,1.00
2022-08-26T00:06:24.456Z,1.00
2022-08-26T00:08:54.591Z,1.00
2022-08-26T00:11:26.957Z,1.00
2022-08-26T00:13:57.580Z,1.00
2022-08-26T00:16:32.018Z,1.00
2022-08-26T00:19:02.203Z,1.00
2022-08-26T00:21:32.044Z,1.00
2022-08-26T00:24:01.893Z,1.00
2022-08-26T00:26:33.936Z,1.00
2022-08-26T00:29:04.175Z,1.00
2022-08-26T00:31:37.632Z,1.00
2022-08-26T00:34:09.398Z,1.00
2022-08-26T00:36:40.670Z,1.00
2022-08-26T00:39:11.432Z,1.00
2022-08-26T00:41:42.815Z,1.00
2022-08-26T00:44:13.712Z,1.00
2022-08-26T00:46:49.466Z,1.00
2022-08-26T00:49:24.526Z,1.00
2022-08-26T00:51:56.798Z,1.00
2022-08-26T00:54:30.121Z,1.00
2022-08-26T00:57:03.940Z,1.00
2022-08-26T00:59:35.568Z,1.00
2022-08-26T01:02:20.068Z,1.00
2022-08-26T01:04:55.604Z,1.00
2022-08-26T01:07:30.154Z,1.00
2022-08-26T01:10:02.385Z,1.00
2022-08-26T01:12:38.820Z,1.00
2022-08-26T01:15:12.338Z,1.00
2022-08-26T01:17:44.871Z,1.00
2022-08-26T01:20:26.570Z,1.00
2022-08-26T01:23:01.628Z,1.00
2022-08-26T01:25:36.071Z,1.00
2022-08-26T01:28:09.284Z,1.00
2022-08-26T01:30:42.441Z,1.00
2022-08-26T01:33:18.198Z,1.00
2022-08-26T01:35:48.894Z,1.00
2022-08-26T01:38:21.570Z,1.00
2022-08-26T01:40:54.526Z,1.00
2022-08-26T01:43:28.396Z,1.00
2022-08-26T01:45:58.673Z,1.00
2022-08-26T01:48:32.695Z,1.00
2022-08-26T01:51:03.718Z,1.00
2022-08-26T01:53:41.790Z,1.00
2022-08-26T01:56:17.256Z,1.00
2022-08-26T01:58:50.577Z,1.00
2022-08-26T02:01:22.083Z,1.00
2022-08-26T02:04:07.999Z,1.00
2022-08-26T02:06:39.173Z,1.00
2022-08-26T02:09:12.440Z,1.00
2022-08-26T02:11:42.233Z,1.00
2022-08-26T02:14:15.938Z,1.00
2022-08-26T02:16:50.281Z,1.00
2022-08-26T02:19:23.497Z,1.00
2022-08-26T02:21:55.481Z,1.00
2022-08-26T02:24:31.062Z,1.00
2022-08-26T02:27:01.491Z,1.00
2022-08-26T02:29:35.581Z,1.00
2022-08-26T02:32:06.240Z,1.00
2022-08-26T02:34:36.578Z,1.00
2022-08-26T02:37:11.555Z,1.00
2022-08-26T02:39:45.939Z,1.00
2022-08-26T02:42:17.933Z,1.00
2022-08-26T02:44:47.790Z,1.00
2022-08-26T02:47:18.397Z,1.00
2022-08-26T02:49:48.777Z,1.00
2022-08-26T02:52:18.788Z,1.00
2022-08-26T02:54:51.188Z,1.00
2022-08-26T02:57:22.208Z,1.00
2022-08-26T02:59:52.465Z,1.00
2022-08-26T03:02:22.400Z,1.00
2022-08-26T03:04:58.091Z,1.00
2022-08-26T03:07:33.565Z,1.00
2022-08-26T03:10:08.949Z,1.00
2022-08-26T03:12:39.057Z,1.00
2022-08-26T03:15:16.626Z,1.00
2022-08-26T03:17:48.383Z,1.00
2022-08-26T03:20:18.472Z,1.00
2022-08-26T03:22:51.415Z,1.00
2022-08-26T03:25:25.194Z,1.00
2022-08-26T03:27:55.438Z,1.00
2022-08-26T03:30:37.899Z,1.00
2022-08-26T03:33:08.571Z,1.60
2022-08-26T03:35:39.738Z,2.10
2022-08-26T03:38:10.084Z,1.80
2022-08-26T03:40:43.447Z,2.00
2022-08-26T03:43:14.208Z,2.40
2022-08-26T03:45:44.308Z,2.50
2022-08-26T03:48:16.155Z,2.20
2022-08-26T03:50:46.028Z,1.90
2022-08-26T03:53:20.533Z,1.90
2022-08-26T03:55:53.093Z,1.50
2022-08-26T03:58:24.210Z,2.70
2022-08-26T04:00:55.585Z,2.60
2022-08-26T04:03:38.315Z,2.70
2022-08-26T04:06:09.132Z,2.90
2022-08-26T04:08:39.523Z,3.60
2022-08-26T04:11:18.324Z,4.50
2022-08-26T04:13:49.005Z,5.10
2022-08-26T04:16:20.412Z,5.50
2022-08-26T04:18:50.579Z,6.30
2022-08-26T04:21:20.401Z,5.50
2022-08-26T04:23:50.458Z,6.00
2022-08-26T04:26:24.354Z,5.20
2022-08-26T04:28:57.949Z,5.80
2022-08-26T04:31:30.982Z,6.30
2022-08-26T04:34:02.197Z,6.30
2022-08-26T04:36:32.630Z,5.80
2022-08-26T04:39:04.802Z,5.40
2022-08-26T04:41:37.275Z,5.60
2022-08-26T04:44:08.482Z,6.00
2022-08-26T04:46:43.677Z,6.00
2022-08-26T04:49:13.991Z,5.20
2022-08-26T04:51:43.889Z,4.20
2022-08-26T04:54:14.179Z,2.90
2022-08-26T04:56:50.754Z,1.20
2022-08-26T04:59:20.644Z,1.00
2022-08-26T05:01:56.276Z,1.00
2022-08-26T05:04:26.278Z,1.00
2022-08-26T05:07:02.659Z,1.00
2022-08-26T05:09:32.957Z,1.00
2022-08-26T05:12:05.616Z,1.00
2022-08-26T05:14:35.857Z,1.00
2022-08-26T05:17:05.655Z,1.00
2022-08-26T05:19:37.100Z,1.00
2022-08-26T05:22:13.098Z,1.00
2022-08-26T05:24:43.308Z,1.00
2022-08-26T05:27:16.586Z,1.00
2022-08-26T05:29:48.218Z,1.00
2022-08-26T05:32:24.449Z,1.00
2022-08-26T05:34:57.118Z,1.00
2022-08-26T05:37:28.470Z,1.00
2022-08-26T05:39:58.287Z,1.00
2022-08-26T05:42:31.252Z,1.00
2022-08-26T05:45:01.045Z,1.00
2022-08-26T05:47:31.001Z,1.00
2022-08-26T05:50:05.177Z,1.00
2022-08-26T05:52:34.903Z,1.00
2022-08-26T05:55:04.782Z,1.00
2022-08-26T05:57:40.472Z,1.00
2022-08-26T06:00:15.406Z,1.00
2022-08-26T06:02:45.261Z,1.00
2022-08-26T06:05:19.068Z,1.00
2022-08-26T06:08:01.403Z,1.00
2022-08-26T06:10:33.398Z,1.00
2022-08-26T06:13:11.607Z,1.00
2022-08-26T06:15:46.102Z,1.00
2022-08-26T06:18:17.679Z,1.00
2022-08-26T06:20:54.571Z,1.00
2022-08-26T06:23:42.469Z,1.00
2022-08-26T06:26:13.774Z,1.00
2022-08-26T06:28:46.779Z,1.00
2022-08-26T06:31:17.258Z,1.00
2022-08-26T06:33:47.897Z,1.00
2022-08-26T06:36:22.117Z,1.00
2022-08-26T06:38:54.500Z,1.00
2022-08-26T06:41:25.815Z,1.00
2022-08-26T06:44:00.423Z,1.00
2022-08-26T06:46:30.627Z,1.00
2022-08-26T06:49:00.853Z,1.00
2022-08-26T06:51:32.203Z,1.00
2022-08-26T06:54:06.003Z,1.00
2022-08-26T06:56:39.401Z,1.00
2022-08-26T06:59:13.761Z,1.00
2022-08-26T07:01:47.075Z,1.00
2022-08-26T07:04:22.365Z,1.00
2022-08-26T07:06:54.896Z,1.00
2022-08-26T07:09:28.129Z,1.00
2022-08-26T07:11:58.838Z,1.00
2022-08-26T07:14:31.741Z,1.00
2022-08-26T07:17:01.903Z,1.00
2022-08-26T07:19:31.983Z,1.00
2022-08-26T07:22:03.634Z,1.00
2022-08-26T07:24:35.099Z,1.00
2022-08-26T07:27:08.604Z,1.00
2022-08-26T07:29:43.417Z,1.00
2022-08-26T07:32:15.886Z,1.00
2022-08-26T07:34:46.545Z,1.00
2022-08-26T07:37:17.517Z,1.00
2022-08-26T07:39:47.816Z,1.00
2022-08-26T07:42:20.780Z,1.00
2022-08-26T07:44:53.185Z,1.00
2022-08-26T07:47:25.494Z,1.00
2022-08-26T07:49:57.704Z,1.00
2022-08-26T07:52:30.019Z,1.00
2022-08-26T07:55:02.089Z,1.00
2022-08-26T07:57:32.895Z,1.00
2022-08-26T08:00:10.080Z,1.00
2022-08-26T08:02:39.921Z,1.00
2022-08-26T08:05:11.529Z,1.00
2022-08-26T08:07:44.795Z,1.00
2022-08-26T08:10:17.137Z,1.00
2022-08-26T08:12:47.374Z,1.00
2022-08-26T08:15:22.977Z,1.00
2022-08-26T08:17:54.769Z,1.00
2022-08-26T08:20:28.603Z,1.00
2022-08-26T08:22:58.936Z,1.00
2022-08-26T08:25:29.525Z,1.00
2022-08-26T08:27:59.501Z,1.00
2022-08-26T08:30:32.707Z,1.00
2022-08-26T08:33:04.946Z,1.00
2022-08-26T08:35:35.501Z,1.00
2022-08-26T08:38:05.581Z,1.00
2022-08-26T08:40:37.648Z,1.00
2022-08-26T08:43:14.297Z,1.00
2022-08-26T08:45:51.924Z,1.00
2022-08-26T08:48:27.818Z,1.00
2022-08-26T08:51:03.166Z,1.00
2022-08-26T08:53:37.023Z,1.00
2022-08-26T08:56:14.821Z,1.00
2022-08-26T08:58:57.265Z,1.00
2022-08-26T09:01:39.461Z,1.00
2022-08-26T09:04:32.246Z,1.00
2022-08-26T09:07:05.047Z,1.00
2022-08-26T09:09:38.791Z,1.00
2022-08-26T09:12:14.247Z,1.00
2022-08-26T09:14:45.766Z,1.00
2022-08-26T09:17:26.371Z,1.00
2022-08-26T09:20:02.240Z,1.00
2022-08-26T09:22:33.502Z,1.00
2022-08-26T09:25:04.646Z,1.00
2022-08-26T09:27:46.918Z,1.00
2022-08-26T09:30:27.032Z,1.00
2022-08-26T09:33:10.421Z,1.00
2022-08-26T09:35:43.851Z,1.00
2022-08-26T09:38:26.915Z,1.00
2022-08-26T09:41:00.190Z,1.00
2022-08-26T09:43:31.211Z,1.00
2022-08-26T09:46:15.004Z,1.00
2022-08-26T09:48:48.171Z,1.00
2022-08-26T09:51:33.483Z,1.00
2022-08-26T09:54:08.239Z,1.00
2022-08-26T09:56:40.133Z,1.00
2022-08-26T09:59:13.172Z,1.00
2022-08-26T10:01:45.677Z,1.00
2022-08-26T10:04:24.320Z,1.00
2022-08-26T10:07:00.275Z,1.00
2022-08-26T10:09:31.334Z,1.00
2022-08-26T10:12:06.562Z,1.00
2022-08-26T10:14:39.816Z,1.00
2022-08-26T10:17:14.067Z,1.00
2022-08-26T10:19:57.181Z,1.00
2022-08-26T10:22:32.981Z,1.00
2022-08-26T10:25:06.152Z,1.00
2022-08-26T10:27:48.439Z,1.00
2022-08-26T10:30:25.775Z,1.00
2022-08-26T10:33:00.779Z,1.00
2022-08-26T10:35:35.055Z,1.00
2022-08-26T10:38:11.279Z,1.00
2022-08-26T10:40:55.123Z,1.00
2022-08-26T10:43:28.735Z,1.00
2022-08-26T10:46:05.869Z,1.00
2022-08-26T10:48:43.872Z,1.00
2022-08-26T10:51:18.657Z,1.00
2022-08-26T10:53:55.929Z,1.00
2022-08-26T10:56:41.256Z,1.00
2022-08-26T10:59:20.860Z,1.00
2022-08-26T11:01:57.449Z,1.00
2022-08-26T11:04:47.551Z,1.00
2022-08-26T11:07:51.506Z,1.00
2022-08-26T11:11:00.673Z,1.00
2022-08-26T11:14:00.660Z,1.00
2022-08-26T11:16:44.565Z,1.00
2022-08-26T11:19:59.622Z,1.00
2022-08-26T11:22:31.217Z,1.00
2022-08-26T11:25:13.192Z,1.00
2022-08-26T11:28:07.361Z,1.00
2022-08-26T11:30:56.932Z,1.00
2022-08-26T11:34:00.705Z,1.00
2022-08-26T11:36:46.249Z,1.00
2022-08-26T11:39:21.638Z,1.00
2022-08-26T11:41:55.469Z,1.00
2022-08-26T11:44:30.052Z,1.00
2022-08-26T11:47:03.122Z,1.00
2022-08-26T11:49:35.601Z,1.00
2022-08-26T11:52:14.899Z,1.00
2022-08-26T11:55:02.980Z,1.00
2022-08-26T11:57:35.477Z,1.00
2022-08-26T12:00:12.520Z,1.00
2022-08-26T12:02:44.956Z,1.00
2022-08-26T12:05:24.503Z,1.00
2022-08-26T12:07:57.367Z,1.00
2022-08-26T12:10:30.480Z,1.00
2022-08-26T12:13:02.766Z,1.00
2022-08-26T12:15:34.870Z,1.00
2022-08-26T12:18:20.670Z,1.00
2022-08-26T12:21:03.178Z,1.00
2022-08-26T12:23:43.848Z,1.00
2022-08-26T12:26:22.630Z,1.00
2022-08-26T12:28:57.483Z,1.00
2022-08-26T12:31:34.093Z,1.00
2022-08-26T12:34:06.741Z,1.00
2022-08-26T12:36:54.763Z,1.00
2022-08-26T12:39:30.267Z,1.00
2022-08-26T12:42:01.606Z,1.00
2022-08-26T12:44:36.576Z,1.00
2022-08-26T12:47:08.749Z,1.00
2022-08-26T12:49:39.795Z,1.00
2022-08-26T12:52:30.097Z,1.00
2022-08-26T12:55:02.862Z,1.00
2022-08-26T12:57:36.108Z,1.00
2022-08-26T13:00:35.019Z,1.00
2022-08-26T13:03:05.382Z,1.00
2022-08-26T13:05:37.938Z,1.00
2022-08-26T13:08:29.134Z,1.00
2022-08-26T13:11:06.711Z,1.00
2022-08-26T13:13:36.566Z,1.00
2022-08-26T13:16:09.384Z,1.00
2022-08-26T13:18:39.256Z,1.00
2022-08-26T13:21:15.936Z,1.00
2022-08-26T13:23:48.444Z,1.00
2022-08-26T13:26:18.458Z,1.00
2022-08-26T13:28:50.043Z,1.00
2022-08-26T13:31:34.514Z,1.00
2022-08-26T13:34:05.077Z,1.00
2022-08-26T13:36:34.907Z,1.00
2022-08-26T13:39:08.264Z,1.00
2022-08-26T13:41:38.102Z,1.00
2022-08-26T13:44:08.554Z,1.00
2022-08-26T13:46:39.054Z,1.00
2022-08-26T13:49:09.694Z,1.00
2022-08-26T13:51:40.324Z,1.00
2022-08-26T13:54:12.743Z,1.00
2022-08-26T13:56:42.963Z,1.00
2022-08-26T13:59:12.934Z,1.00
2022-08-26T14:01:42.782Z,1.00
2022-08-26T14:04:12.722Z,1.00
2022-08-26T14:06:42.552Z,1.00
2022-08-26T14:09:15.030Z,1.00
2022-08-26T14:11:54.082Z,1.00
2022-08-26T14:14:25.208Z,1.00
2022-08-26T14:16:56.114Z,1.00
2022-08-26T14:19:31.307Z,1.00
2022-08-26T14:22:03.404Z,1.00
2022-08-26T14:24:35.773Z,1.00
2022-08-26T14:27:05.550Z,1.00
2022-08-26T14:29:35.399Z,1.00
2022-08-26T14:32:11.530Z,1.00
2022-08-26T14:34:42.744Z,1.00
2022-08-26T14:37:15.400Z,1.00
2022-08-26T14:39:48.862Z,1.00
2022-08-26T14:42:22.394Z,1.00
2022-08-26T14:44:57.619Z,1.00
2022-08-26T14:47:27.597Z,1.00
2022-08-26T14:49:57.466Z,1.00
2022-08-26T14:52:27.682Z,1.00
2022-08-26T14:54:57.519Z,1.00
2022-08-26T14:57:27.397Z,1.00
2022-08-26T14:59:57.342Z,1.00
2022-08-26T15:02:33.513Z,1.00
2022-08-26T15:05:04.076Z,1.00
2022-08-26T15:07:34.062Z,1.00
2022-08-26T15:10:07.716Z,1.00
2022-08-26T15:12:37.555Z,1.00
2022-08-26T15:15:08.980Z,1.00
2022-08-26T15:17:41.854Z,1.00
2022-08-26T15:20:12.967Z,1.00
2022-08-26T15:22:44.497Z,1.00
2022-08-26T15:25:17.922Z,1.00
2022-08-26T15:27:48.031Z,1.00
2022-08-26T15:30:18.416Z,1.00
2022-08-26T15:32:48.221Z,1.00
2022-08-26T15:35:18.196Z,1.00
2022-08-26T15:37:48.039Z,1.00
2022-08-26T15:40:21.941Z,1.00
2022-08-26T15:43:01.107Z,1.00
2022-08-26T15:45:36.313Z,1.00
2022-08-26T15:48:06.900Z,1.00
2022-08-26T15:50:36.757Z,1.00
2022-08-26T15:53:07.746Z,1.00
2022-08-26T15:55:40.209Z,1.00
2022-08-26T15:58:10.382Z,1.00
2022-08-26T16:00:40.794Z,1.00
2022-08-26T16:03:11.395Z,1.00
2022-08-26T16:05:43.589Z,1.00
2022-08-26T16:08:14.397Z,1.00
2022-08-26T16:10:50.606Z,1.00
2022-08-26T16:13:21.710Z,1.00
2022-08-26T16:15:52.506Z,1.00
2022-08-26T16:18:23.608Z,1.00
2022-08-26T16:21:13.140Z,1.00
2022-08-26T16:23:45.277Z,1.00
2022-08-26T16:26:20.556Z,1.00
2022-08-26T16:28:51.170Z,1.00
2022-08-26T16:31:21.573Z,1.00
2022-08-26T16:33:51.685Z,1.00
2022-08-26T16:36:21.840Z,1.00
2022-08-26T16:38:56.466Z,1.00
2022-08-26T16:41:30.904Z,1.00
2022-08-26T16:44:01.435Z,1.00
2022-08-26T16:46:32.029Z,1.00
2022-08-26T16:49:04.126Z,1.00
2022-08-26T16:51:38.254Z,1.00
2022-08-26T16:54:09.637Z,8.20
2022-08-26T16:56:42.112Z,9.20
2022-08-26T16:59:13.572Z,10.70
2022-08-26T17:01:43.432Z,13.20
2022-08-26T17:04:13.279Z,14.00
2022-08-26T17:06:43.093Z,14.70
2022-08-26T17:09:12.902Z,3.30
2022-08-26T17:11:45.671Z,3.80
2022-08-26T17:14:15.886Z,1.00
2022-08-26T17:16:51.117Z,1.00
2022-08-26T17:19:21.223Z,1.00
2022-08-26T17:21:51.733Z,1.90
2022-08-26T17:24:21.864Z,3.80
2022-08-26T17:26:55.821Z,1.80
2022-08-26T17:29:25.753Z,2.30
2022-08-26T17:31:55.680Z,2.90
2022-08-26T17:34:26.138Z,2.30
2022-08-26T17:36:55.946Z,5.00
2022-08-26T17:39:25.873Z,3.60
2022-08-26T17:41:58.362Z,1.00
2022-08-26T17:44:28.161Z,10.20
2022-08-26T17:46:58.075Z,8.60
2022-08-26T17:49:27.956Z,12.80
2022-08-26T17:52:00.254Z,18.70
2022-08-26T17:54:30.319Z,21.10
2022-08-26T17:57:04.881Z,23.50
2022-08-26T17:59:40.928Z,23.90
2022-08-26T18:02:11.001Z,26.50
2022-08-26T18:04:40.806Z,27.80
2022-08-26T18:07:10.567Z,29.10
2022-08-26T18:09:40.360Z,32.40
2022-08-26T18:12:14.539Z,34.10
2022-08-26T18:14:44.377Z,34.60
2022-08-26T18:17:19.352Z,34.70
2022-08-26T18:19:49.361Z,33.30
2022-08-26T18:22:20.539Z,33.40
2022-08-26T18:24:58.853Z,36.50
2022-08-26T18:27:31.790Z,37.00
2022-08-26T18:30:01.673Z,38.60
2022-08-26T18:32:31.549Z,41.70
2022-08-26T18:35:01.374Z,43.60
2022-08-26T18:37:31.729Z,46.60
2022-08-26T18:40:02.098Z,49.80
2022-08-26T18:42:36.651Z,49.70
2022-08-26T18:45:08.104Z,49.80
2022-08-26T18:47:38.563Z,50.70
2022-08-26T18:50:10.914Z,50.40
2022-08-26T18:52:40.880Z,50.60
2022-08-26T18:55:11.317Z,48.30
2022-08-26T18:57:43.670Z,48.70
2022-08-26T19:00:14.725Z,49.00
2022-08-26T19:02:47.055Z,49.40
2022-08-26T19:05:21.996Z,48.30
2022-08-26T19:07:51.844Z,49.40
2022-08-26T19:10:21.773Z,49.30
2022-08-26T19:12:56.335Z,47.50
2022-08-26T19:15:28.613Z,47.00
2022-08-26T19:17:58.440Z,49.40
2022-08-26T19:20:28.277Z,49.70
2022-08-26T19:23:02.607Z,50.60
2022-08-26T19:25:43.594Z,50.90
2022-08-26T19:28:16.713Z,51.30
2022-08-26T19:30:51.314Z,53.20
2022-08-26T19:33:23.866Z,53.40
2022-08-26T19:35:53.966Z,53.40
2022-08-26T19:38:24.112Z,54.60
2022-08-26T19:40:54.065Z,54.00
2022-08-26T19:43:26.541Z,53.20
2022-08-26T19:45:56.499Z,53.30
2022-08-26T19:48:26.582Z,52.60
2022-08-26T19:50:56.365Z,54.00
2022-08-26T19:53:26.459Z,54.00
2022-08-26T19:55:56.289Z,53.10
2022-08-26T19:58:28.710Z,54.70
2022-08-26T20:00:58.562Z,54.90
2022-08-26T20:03:28.566Z,55.50
2022-08-26T20:05:58.378Z,55.50
2022-08-26T20:08:28.658Z,53.70
2022-08-26T20:11:04.841Z,53.70
2022-08-26T20:13:38.127Z,53.50
2022-08-26T20:16:10.288Z,52.10
2022-08-26T20:18:52.870Z,54.10
2022-08-26T20:21:29.363Z,54.70
2022-08-26T20:24:02.081Z,53.60
2022-08-26T20:26:36.202Z,53.70
2022-08-26T20:29:10.756Z,54.10
2022-08-26T20:31:40.852Z,53.70
2022-08-26T20:34:11.102Z,53.80
2022-08-26T20:36:42.978Z,52.80
2022-08-26T20:39:13.424Z,53.70
2022-08-26T20:41:43.926Z,53.70
2022-08-26T20:44:17.616Z,53.70
2022-08-26T20:46:47.854Z,47.70
2022-08-26T20:49:18.382Z,49.40
2022-08-26T20:51:51.387Z,50.10
2022-08-26T20:54:27.525Z,52.00
2022-08-26T20:56:59.439Z,53.50
2022-08-26T20:59:32.005Z,53.30
2022-08-26T21:02:01.798Z,53.70
2022-08-26T21:04:31.821Z,52.30
2022-08-26T21:07:01.656Z,52.00
2022-08-26T21:09:31.720Z,53.00
2022-08-26T21:12:01.786Z,53.70
2022-08-26T21:14:34.207Z,53.10
2022-08-26T21:17:04.054Z,52.00
2022-08-26T21:19:34.057Z,52.20
2022-08-26T21:22:04.023Z,51.50
2022-08-26T21:24:33.859Z,50.80
2022-08-26T21:27:03.663Z,47.70
2022-08-26T21:29:36.109Z,47.30
2022-08-26T21:32:06.740Z,48.60
2022-08-26T21:34:36.910Z,48.20
2022-08-26T21:37:13.248Z,48.20
2022-08-26T21:39:46.147Z,47.80
2022-08-26T21:42:16.108Z,47.90
2022-08-26T21:44:52.830Z,47.90
2022-08-26T21:47:23.134Z,49.50
2022-08-26T21:49:53.257Z,47.30
2022-08-26T21:52:23.961Z,47.90
2022-08-26T21:54:54.018Z,48.30
2022-08-26T21:57:23.908Z,46.70
2022-08-26T21:59:56.439Z,48.30
2022-08-26T22:02:27.025Z,49.00
2022-08-26T22:04:57.097Z,47.70
2022-08-26T22:07:26.993Z,45.30
2022-08-26T22:09:56.851Z,45.30
2022-08-26T22:12:26.724Z,45.70
2022-08-26T22:14:59.311Z,46.30
2022-08-26T22:17:29.785Z,46.00
2022-08-26T22:19:59.616Z,45.60
2022-08-26T22:22:30.200Z,45.30
2022-08-26T22:25:00.174Z,47.00
2022-08-26T22:27:30.095Z,46.70
2022-08-26T22:30:02.555Z,48.20
2022-08-26T22:32:32.410Z,47.30
2022-08-26T22:35:02.512Z,47.10
2022-08-26T22:37:52.335Z,45.60
2022-08-26T22:40:25.203Z,47.30
2022-08-26T22:42:56.908Z,49.10
2022-08-26T22:45:34.362Z,49.30
2022-08-26T22:48:06.512Z,50.40
2022-08-26T22:50:36.560Z,51.30
2022-08-26T22:53:06.820Z,50.70
2022-08-26T22:55:36.807Z,49.50
2022-08-26T22:58:07.989Z,49.50
2022-08-26T23:00:41.096Z,49.50
2022-08-26T23:03:11.722Z,48.90
2022-08-26T23:05:42.808Z,48.10
2022-08-26T23:08:13.729Z,47.70
2022-08-26T23:10:44.473Z,48.50
2022-08-26T23:13:14.687Z,49.30
2022-08-26T23:15:47.800Z,49.40
2022-08-26T23:18:18.776Z,49.30
2022-08-26T23:20:48.599Z,49.70
2022-08-26T23:23:18.447Z,50.00
2022-08-26T23:25:48.272Z,50.40
2022-08-26T23:28:18.541Z,49.70
2022-08-26T23:30:51.326Z,50.20
2022-08-26T23:33:21.138Z,50.20
2022-08-26T23:35:48.528Z,50.90
2022-08-26T23:38:19.668Z,51.60
2022-08-26T23:40:49.824Z,52.00
2022-08-26T23:43:19.630Z,52.60
2022-08-26T23:45:52.025Z,53.30
2022-08-26T23:48:21.876Z,53.30
2022-08-26T23:51:04.273Z,54.50
2022-08-26T23:53:34.099Z,55.20
2022-08-26T23:56:03.902Z,55.60
2022-08-26T23:58:33.799Z,55.70
